createdAt,value
2023-02-11T00:01:48.673Z,100.00
2023-02-11T00:04:16.842Z,100.00
2023-02-11T00:06:44.704Z,100.00
2023-02-11T00:09:11.945Z,100.00
2023-02-11T00:11:39.365Z,100.00
2023-02-11T00:14:08.680Z,100.00
2023-02-11T00:16:36.740Z,100.00
2023-02-11T00:19:06.312Z,100.00
2023-02-11T00:21:34.603Z,100.00
2023-02-11T00:24:02.416Z,100.00
2023-02-11T00:26:32.702Z,100.00
2023-02-11T00:29:02.086Z,100.00
2023-02-11T00:31:32.163Z,100.00
2023-02-11T00:33:59.511Z,100.00
2023-02-11T00:36:28.352Z,100.00
2023-02-11T00:38:56.927Z,100.00
2023-02-11T00:41:24.869Z,100.00
2023-02-11T00:43:52.605Z,100.00
2023-02-11T00:46:20.222Z,100.00
2023-02-11T00:48:47.946Z,100.00
2023-02-11T00:51:16.274Z,100.00
2023-02-11T00:53:43.613Z,100.00
2023-02-11T00:56:11.392Z,100.00
2023-02-11T00:58:38.728Z,100.00
2023-02-11T01:01:06.411Z,100.00
2023-02-11T01:03:34.601Z,100.00
2023-02-11T01:06:02.048Z,100.00
2023-02-11T01:08:30.070Z,100.00
2023-02-11T01:11:11.928Z,100.00
2023-02-11T01:13:39.738Z,100.00
2023-02-11T01:16:09.873Z,100.00
2023-02-11T01:18:38.486Z,100.00
2023-02-11T01:21:06.289Z,100.00
2023-02-11T01:23:33.598Z,100.00
2023-02-11T01:26:00.915Z,100.00
2023-02-11T01:28:31.037Z,100.00
2023-02-11T01:31:02.462Z,100.00
2023-02-11T01:33:30.769Z,100.00
2023-02-11T01:36:04.195Z,100.00
2023-02-11T01:38:32.616Z,100.00
2023-02-11T01:41:06.010Z,100.00
2023-02-11T01:43:40.421Z,100.00
2023-02-11T01:46:34.958Z,100.00
2023-02-11T01:49:16.470Z,100.00
2023-02-11T01:51:49.862Z,100.00
2023-02-11T01:54:39.829Z,100.00
2023-02-11T01:57:25.087Z,100.00
2023-02-11T02:00:11.068Z,100.00
2023-02-11T02:02:58.875Z,100.00
2023-02-11T02:05:38.271Z,100.00
2023-02-11T02:08:15.363Z,100.00
2023-02-11T02:10:48.250Z,100.00
2023-02-11T02:13:17.456Z,100.00
2023-02-11T02:15:52.023Z,100.00
2023-02-11T02:18:56.021Z,100.00
2023-02-11T02:21:37.835Z,100.00
2023-02-11T02:24:13.190Z,100.00
2023-02-11T05:13:14.866Z,100.00
2023-02-11T05:15:42.620Z,100.00
2023-02-11T05:18:10.709Z,100.00
2023-02-11T05:20:39.184Z,100.00
2023-02-11T05:23:06.418Z,100.00
2023-02-11T05:25:35.467Z,100.00
2023-02-11T05:28:03.379Z,100.00
2023-02-11T05:30:30.855Z,100.00
2023-02-11T05:32:58.294Z,100.00
2023-02-11T05:35:26.106Z,100.00
2023-02-11T05:37:53.499Z,100.00
2023-02-11T05:40:20.939Z,100.00
2023-02-11T05:42:48.188Z,100.00
2023-02-11T05:45:15.571Z,100.00
2023-02-11T05:47:43.535Z,100.00
2023-02-11T05:50:11.631Z,100.00
2023-02-11T05:52:40.000Z,100.00
2023-02-11T05:55:07.913Z,100.00
2023-02-11T05:57:35.209Z,100.00
2023-02-11T06:00:03.100Z,100.00
2023-02-11T06:02:40.368Z,100.00
2023-02-11T06:05:08.226Z,100.00
2023-02-11T06:07:35.551Z,100.00
2023-02-11T06:10:03.390Z,100.00
2023-02-11T06:12:30.716Z,100.00
2023-02-11T06:14:58.465Z,100.00
2023-02-11T06:17:25.807Z,100.00
2023-02-11T06:19:53.093Z,100.00
2023-02-11T06:22:20.484Z,100.00
2023-02-11T06:25:00.761Z,100.00
2023-02-11T06:27:29.731Z,100.00
2023-02-11T06:29:57.087Z,100.00
2023-02-11T06:32:42.959Z,100.00
2023-02-11T06:35:12.360Z,100.00
2023-02-11T06:37:41.421Z,100.00
2023-02-11T06:40:10.320Z,100.00
2023-02-11T06:42:39.142Z,100.00
2023-02-11T06:45:10.778Z,100.00
2023-02-11T06:47:38.358Z,100.00
2023-02-11T06:50:08.477Z,100.00
2023-02-11T06:52:36.304Z,100.00
2023-02-11T06:55:03.808Z,100.00
2023-02-11T06:57:31.628Z,100.00
2023-02-11T06:59:58.930Z,100.00
2023-02-11T07:02:26.293Z,100.00
2023-02-11T07:04:53.782Z,100.00
2023-02-11T07:07:21.554Z,100.00
2023-02-11T07:09:50.126Z,100.00
2023-02-11T07:12:17.484Z,100.00
2023-02-11T07:14:44.733Z,100.00
2023-02-11T07:17:12.030Z,100.00
2023-02-11T07:19:39.489Z,100.00
2023-02-11T07:22:07.010Z,100.00
2023-02-11T07:24:34.322Z,100.00
2023-02-11T07:27:01.643Z,100.00
2023-02-11T07:29:29.345Z,100.00
2023-02-11T07:31:57.245Z,100.00
2023-02-11T07:34:24.877Z,100.00
2023-02-11T07:36:52.526Z,100.00
2023-02-11T07:39:21.863Z,100.00
2023-02-11T07:41:49.585Z,100.00
2023-02-11T07:44:18.652Z,100.00
2023-02-11T07:46:47.815Z,100.00
2023-02-11T07:49:15.812Z,100.00
2023-02-11T07:51:43.213Z,100.00
2023-02-11T07:54:12.405Z,100.00
2023-02-11T07:56:40.221Z,100.00
2023-02-11T07:59:07.925Z,100.00
2023-02-11T08:01:35.220Z,100.00
2023-02-11T08:04:03.359Z,100.00
2023-02-11T08:06:33.184Z,100.00
2023-02-11T08:09:06.238Z,100.00
2023-02-11T08:11:34.202Z,100.00
2023-02-11T08:14:02.435Z,100.00
2023-02-11T08:16:32.766Z,100.00
2023-02-11T08:19:03.152Z,100.00
2023-02-11T08:21:31.088Z,100.00
2023-02-11T08:23:58.425Z,100.00
2023-02-11T08:26:28.671Z,100.00
2023-02-11T08:28:58.039Z,100.00
2023-02-11T08:31:28.558Z,100.00
2023-02-11T08:33:59.861Z,100.00
2023-02-11T08:36:29.671Z,100.00
2023-02-11T08:39:16.151Z,100.00
2023-02-11T08:41:46.311Z,100.00
2023-02-11T08:44:14.237Z,100.00
2023-02-11T08:46:41.541Z,100.00
2023-02-11T08:49:09.072Z,100.00
2023-02-11T08:51:36.416Z,100.00
2023-02-11T08:54:04.334Z,100.00
2023-02-11T08:56:33.227Z,100.00
2023-02-11T08:59:01.543Z,100.00
2023-02-11T09:01:30.589Z,100.00
2023-02-11T09:03:59.062Z,100.00
2023-02-11T09:06:27.915Z,100.00
2023-02-11T09:08:57.112Z,100.00
2023-02-11T09:11:32.446Z,100.00
2023-02-11T09:14:00.434Z,100.00
2023-02-11T09:16:30.543Z,100.00
2023-02-11T09:19:00.008Z,100.00
2023-02-11T09:21:28.131Z,100.00
2023-02-11T09:23:56.154Z,100.00
2023-02-11T09:26:29.157Z,100.00
2023-02-11T09:28:57.091Z,100.00
2023-02-11T09:31:26.858Z,100.00
2023-02-11T09:33:57.529Z,100.00
2023-02-11T09:36:28.776Z,100.00
2023-02-11T09:38:58.897Z,100.00
2023-02-11T09:41:37.804Z,100.00
2023-02-11T09:44:08.904Z,100.00
2023-02-11T09:46:42.217Z,100.00
2023-02-11T09:49:20.075Z,100.00
2023-02-11T09:51:59.311Z,100.00
2023-02-11T09:54:54.801Z,100.00
2023-02-11T09:57:28.525Z,100.00
2023-02-11T09:59:57.650Z,100.00
2023-02-11T10:02:45.378Z,100.00
2023-02-11T10:05:30.398Z,100.00
2023-02-11T10:08:17.123Z,100.00
2023-02-11T10:10:52.826Z,100.00
2023-02-11T10:13:49.619Z,100.00
2023-02-11T10:16:37.398Z,100.00
2023-02-11T10:19:19.442Z,100.00
2023-02-11T10:21:52.780Z,100.00
2023-02-11T10:24:21.184Z,100.00
2023-02-11T10:26:49.641Z,100.00
2023-02-11T10:29:37.148Z,100.00
2023-02-11T10:32:16.315Z,100.00
2023-02-11T10:34:43.726Z,100.00
2023-02-11T10:37:14.807Z,100.00
2023-02-11T10:39:42.484Z,100.00
2023-02-11T10:42:13.058Z,100.00
2023-02-11T10:44:59.252Z,100.00
2023-02-11T10:47:33.379Z,100.00
2023-02-11T10:50:03.708Z,100.00
2023-02-11T10:52:31.841Z,100.00
2023-02-11T10:54:59.134Z,100.00
2023-02-11T10:57:35.326Z,100.00
2023-02-11T11:00:17.892Z,100.00
2023-02-11T11:02:52.256Z,100.00
2023-02-11T11:05:24.046Z,100.00
2023-02-11T11:07:53.281Z,100.00
2023-02-11T11:10:44.676Z,100.00
2023-02-11T11:13:28.002Z,99.76
2023-02-11T11:16:07.491Z,94.51
2023-02-11T11:18:34.931Z,94.59
2023-02-11T11:21:16.469Z,95.98
2023-02-11T11:23:50.494Z,96.63
2023-02-11T11:26:19.201Z,97.50
2023-02-11T11:28:49.200Z,94.98
2023-02-11T11:31:21.661Z,93.30
2023-02-11T11:33:52.386Z,90.32
2023-02-11T11:36:32.263Z,88.20
2023-02-11T11:39:04.418Z,86.27
2023-02-11T11:41:34.630Z,85.08
2023-02-11T11:44:01.950Z,83.77
2023-02-11T11:46:33.999Z,84.22
2023-02-11T11:49:14.156Z,83.28
2023-02-11T11:51:48.506Z,83.19
2023-02-11T11:54:20.067Z,77.06
2023-02-11T11:56:54.041Z,75.72
2023-02-11T11:59:22.907Z,73.64
2023-02-11T12:02:20.474Z,75.59
2023-02-11T12:04:59.584Z,75.79
2023-02-11T12:07:57.051Z,74.75
2023-02-11T12:10:39.610Z,74.96
2023-02-11T12:13:19.105Z,75.40
2023-02-11T12:16:02.281Z,75.55
2023-02-11T12:18:50.643Z,74.65
2023-02-11T12:21:23.108Z,73.61
2023-02-11T12:24:30.504Z,73.07
2023-02-11T12:27:42.832Z,71.93
2023-02-11T12:30:24.369Z,72.35
2023-02-11T12:32:59.763Z,71.30
2023-02-11T12:35:46.821Z,70.85
2023-02-11T12:38:33.436Z,69.14
2023-02-11T12:41:52.394Z,70.05
2023-02-11T12:45:05.775Z,68.32
2023-02-11T12:48:11.345Z,69.87
2023-02-11T12:50:39.225Z,68.41
2023-02-11T12:53:30.035Z,68.65
2023-02-11T12:56:23.826Z,70.13
2023-02-11T12:58:54.189Z,69.71
2023-02-11T13:01:27.787Z,69.98
2023-02-11T13:04:06.515Z,69.40
2023-02-11T13:06:39.980Z,69.84
2023-02-11T13:09:19.650Z,69.31
2023-02-11T13:11:59.123Z,67.54
2023-02-11T13:14:35.313Z,67.54
2023-02-11T13:17:16.179Z,65.98
2023-02-11T13:19:59.492Z,65.75
2023-02-11T13:22:34.589Z,63.51
2023-02-11T13:25:20.678Z,63.79
2023-02-11T13:28:19.246Z,62.77
2023-02-11T13:30:52.105Z,63.49
2023-02-11T13:33:35.033Z,63.89
2023-02-11T13:36:04.576Z,63.99
2023-02-11T13:38:33.936Z,64.09
2023-02-11T13:41:05.500Z,62.64
2023-02-11T13:43:36.705Z,63.49
2023-02-11T13:46:07.294Z,63.25
2023-02-11T13:48:52.596Z,64.67
2023-02-11T13:51:42.827Z,64.04
2023-02-11T13:54:26.161Z,62.23
2023-02-11T13:57:15.746Z,62.37
2023-02-11T13:59:44.526Z,60.60
2023-02-11T14:02:43.279Z,58.89
2023-02-11T14:05:59.003Z,59.28
2023-02-11T14:08:44.472Z,58.43
2023-02-11T14:11:24.216Z,58.12
2023-02-11T14:13:51.503Z,58.58
2023-02-11T14:16:36.493Z,56.33
2023-02-11T14:19:06.004Z,56.34
2023-02-11T14:21:37.348Z,55.63
2023-02-11T14:24:05.218Z,54.90
2023-02-11T14:26:52.224Z,54.87
2023-02-11T14:29:46.148Z,55.58
2023-02-11T14:32:25.435Z,56.96
2023-02-11T14:35:11.654Z,57.67
2023-02-11T14:38:06.974Z,56.38
2023-02-11T14:40:58.982Z,56.81
2023-02-11T14:43:31.598Z,56.64
2023-02-11T14:46:02.379Z,55.90
2023-02-11T14:48:34.996Z,55.85
2023-02-11T14:51:34.818Z,54.86
2023-02-11T14:54:15.226Z,56.55
2023-02-11T14:56:44.702Z,55.46
2023-02-11T14:59:21.929Z,55.42
2023-02-11T15:01:52.326Z,56.33
2023-02-11T15:04:28.858Z,57.22
2023-02-11T15:06:59.935Z,56.36
2023-02-11T15:09:54.205Z,57.27
2023-02-11T15:12:25.359Z,57.93
2023-02-11T15:14:59.184Z,58.62
2023-02-11T15:17:31.762Z,57.40
2023-02-11T15:20:02.223Z,57.67
2023-02-11T15:22:33.216Z,57.97
2023-02-11T15:25:22.851Z,58.52
2023-02-11T15:27:53.198Z,59.20
2023-02-11T15:30:23.738Z,58.32
2023-02-11T15:32:53.677Z,58.85
2023-02-11T15:35:21.019Z,59.73
2023-02-11T15:37:50.620Z,59.31
2023-02-11T15:40:23.031Z,59.42
2023-02-11T15:43:20.145Z,59.46
2023-02-11T15:46:01.590Z,60.21
2023-02-11T15:48:37.173Z,60.47
2023-02-11T15:51:36.281Z,61.00
2023-02-11T15:54:08.306Z,60.70
2023-02-11T15:56:43.426Z,60.71
2023-02-11T15:59:15.639Z,62.01
2023-02-11T16:01:45.402Z,62.82
2023-02-11T16:04:23.254Z,63.07
2023-02-11T16:06:51.988Z,63.06
2023-02-11T16:09:19.239Z,62.38
2023-02-11T16:11:47.173Z,62.20
2023-02-11T16:14:30.202Z,62.21
2023-02-11T16:17:05.895Z,62.74
2023-02-11T16:19:35.336Z,62.71
2023-02-11T16:22:09.264Z,62.98
2023-02-11T16:24:39.512Z,63.85
2023-02-11T16:27:18.560Z,63.60
2023-02-11T16:29:48.174Z,63.90
2023-02-11T16:32:15.846Z,64.00
2023-02-11T16:34:43.437Z,64.38
2023-02-11T16:37:11.206Z,65.09
2023-02-11T16:39:38.713Z,65.91
2023-02-11T16:42:09.190Z,66.36
2023-02-11T16:44:36.618Z,68.43
2023-02-11T16:47:07.340Z,68.50
2023-02-11T16:49:38.356Z,71.03
2023-02-11T16:52:08.711Z,70.98
2023-02-11T16:54:36.087Z,70.68
2023-02-11T16:57:13.689Z,71.25
2023-02-11T16:59:42.189Z,70.97
2023-02-11T17:02:23.621Z,70.53
2023-02-11T17:04:54.168Z,70.95
2023-02-11T17:07:22.311Z,73.35
2023-02-11T17:09:51.707Z,75.82
2023-02-11T17:12:19.897Z,78.12
2023-02-11T17:14:47.683Z,75.90
2023-02-11T17:17:15.990Z,77.50
2023-02-11T17:19:44.042Z,76.75
2023-02-11T17:22:12.062Z,78.16
2023-02-11T17:24:39.381Z,80.89
2023-02-11T17:27:07.509Z,83.11
2023-02-11T17:29:34.852Z,81.72
2023-02-11T17:32:02.674Z,81.54
2023-02-11T17:34:30.007Z,80.33
2023-02-11T17:36:58.707Z,80.60
2023-02-11T17:39:26.873Z,83.34
2023-02-11T17:41:54.243Z,84.86
2023-02-11T17:44:21.505Z,85.60
2023-02-11T17:46:48.922Z,87.61
2023-02-11T17:49:16.488Z,87.21
2023-02-11T17:51:44.212Z,87.30
2023-02-11T17:54:15.167Z,92.91
2023-02-11T17:56:43.122Z,96.04
2023-02-11T17:59:12.281Z,97.66
2023-02-11T18:01:42.461Z,98.21
2023-02-11T18:04:14.924Z,100.00
2023-02-11T18:06:42.892Z,99.92
2023-02-11T18:09:10.764Z,96.02
2023-02-11T18:11:40.052Z,93.88
2023-02-11T18:14:09.047Z,93.33
2023-02-11T18:16:39.090Z,93.44
2023-02-11T18:19:07.657Z,95.29
2023-02-11T18:21:35.935Z,99.10
2023-02-11T18:24:06.682Z,99.89
2023-02-11T18:26:35.056Z,99.32
2023-02-11T18:29:04.231Z,98.01
2023-02-11T18:31:32.211Z,98.31
2023-02-11T18:33:59.550Z,98.13
2023-02-11T18:36:27.033Z,99.42
2023-02-11T18:38:54.569Z,99.58
2023-02-11T18:41:22.017Z,98.69
2023-02-11T18:43:49.309Z,100.00
2023-02-11T18:46:17.432Z,100.00
2023-02-11T18:48:45.423Z,100.00
2023-02-11T18:51:16.108Z,98.13
2023-02-11T18:53:43.478Z,99.50
2023-02-11T18:56:14.249Z,100.00
2023-02-11T18:58:42.073Z,100.00
2023-02-11T19:01:17.186Z,100.00
2023-02-11T19:03:45.643Z,99.58
2023-02-11T19:06:25.561Z,99.35
2023-02-11T19:08:59.831Z,100.00
2023-02-11T19:11:49.914Z,100.00
2023-02-11T19:14:21.749Z,100.00
2023-02-11T19:16:51.200Z,100.00
2023-02-11T19:19:19.594Z,100.00
2023-02-11T19:21:47.671Z,100.00
2023-02-11T19:24:19.754Z,100.00
2023-02-11T19:26:49.223Z,100.00
2023-02-11T19:29:18.000Z,100.00
2023-02-11T19:31:45.888Z,100.00
2023-02-11T19:34:15.573Z,99.28
2023-02-11T19:36:43.187Z,100.00
2023-02-11T19:39:11.123Z,100.00
2023-02-11T19:41:39.574Z,100.00
2023-02-11T19:44:07.899Z,100.00
2023-02-11T19:46:38.489Z,100.00
2023-02-11T19:49:05.863Z,100.00
2023-02-11T19:51:35.633Z,100.00
2023-02-11T19:54:03.130Z,100.00
2023-02-11T19:56:30.448Z,100.00
2023-02-11T19:58:57.868Z,100.00
2023-02-11T20:01:25.954Z,100.00
2023-02-11T20:03:55.087Z,100.00
2023-02-11T20:06:26.159Z,100.00
2023-02-11T20:08:59.062Z,100.00
2023-02-11T20:11:28.614Z,100.00
2023-02-11T20:13:57.794Z,100.00
2023-02-11T20:16:40.998Z,100.00
2023-02-11T20:19:18.466Z,100.00
2023-02-11T20:21:47.657Z,100.00
2023-02-11T20:24:16.412Z,100.00
2023-02-11T20:26:45.191Z,100.00
2023-02-11T20:29:12.910Z,100.00
2023-02-11T20:31:40.251Z,100.00
2023-02-11T20:34:07.605Z,100.00
2023-02-11T20:36:37.484Z,100.00
2023-02-11T20:39:06.990Z,100.00
2023-02-11T20:41:36.709Z,100.00
2023-02-11T20:44:07.565Z,100.00
2023-02-11T20:46:38.355Z,100.00
2023-02-11T20:49:08.556Z,100.00
2023-02-11T20:51:37.484Z,100.00
2023-02-11T20:54:06.428Z,100.00
2023-02-11T20:56:36.654Z,100.00
2023-02-11T20:59:05.237Z,100.00
2023-02-11T21:01:35.736Z,100.00
2023-02-11T21:04:14.073Z,100.00
2023-02-11T21:06:52.037Z,100.00
2023-02-11T21:09:23.498Z,100.00
2023-02-11T21:11:52.693Z,100.00
2023-02-11T21:14:22.288Z,100.00
2023-02-11T21:16:50.658Z,100.00
2023-02-11T21:19:18.490Z,100.00
2023-02-11T21:21:46.327Z,100.00
2023-02-11T21:24:14.255Z,100.00
2023-02-11T21:26:41.567Z,100.00
2023-02-11T21:29:10.068Z,100.00
2023-02-11T21:31:38.200Z,100.00
2023-02-11T21:34:06.807Z,100.00
2023-02-11T21:36:34.190Z,100.00
2023-02-11T21:39:03.685Z,100.00
2023-02-11T21:41:32.155Z,100.00
2023-02-11T21:43:59.381Z,100.00
2023-02-11T21:46:27.736Z,100.00
2023-02-11T21:48:56.674Z,100.00
2023-02-11T21:51:25.969Z,100.00
2023-02-11T21:53:59.556Z,100.00
2023-02-11T21:56:28.193Z,100.00
2023-02-11T21:58:58.463Z,100.00
2023-02-11T22:01:29.144Z,100.00
2023-02-11T22:03:57.054Z,100.00
2023-02-11T22:06:27.388Z,100.00
2023-02-11T22:08:55.493Z,100.00
2023-02-11T22:11:23.474Z,100.00
2023-02-11T22:13:56.304Z,100.00
2023-02-11T22:16:24.858Z,100.00
2023-02-11T22:18:52.827Z,100.00
2023-02-11T22:21:22.850Z,100.00
2023-02-11T22:23:51.923Z,100.00
2023-02-11T22:26:22.189Z,100.00
2023-02-11T22:28:51.039Z,100.00
2023-02-11T22:31:21.601Z,100.00
2023-02-11T22:33:49.005Z,100.00
2023-02-11T22:36:24.723Z,100.00
2023-02-11T22:38:53.836Z,100.00
2023-02-11T22:41:21.959Z,100.00
2023-02-11T22:43:49.775Z,100.00
2023-02-11T22:46:19.454Z,100.00
2023-02-11T22:48:48.108Z,100.00
2023-02-11T22:51:27.967Z,100.00
2023-02-11T22:54:04.826Z,100.00
2023-02-11T22:56:33.835Z,100.00
2023-02-11T22:59:03.780Z,100.00
2023-02-11T23:01:31.731Z,100.00
2023-02-11T23:04:01.807Z,100.00
2023-02-11T23:06:29.144Z,100.00
2023-02-11T23:08:56.656Z,100.00
2023-02-11T23:11:27.827Z,100.00
